Terminal Aerodrome Forecast
Issued by NWS

Home | Current Version | Previous Version | Text Only | Print | Product List | Glossary On
Versions: 1 2 3 4 5 6 7 8 9 10 11 12 13
000
FTUS43 KOAX 140521
TAFSNY
TAF
KSNY 140521Z 1406/1506 33015KT P6SM BKN050 OVC080
     FM141600 34028G38KT P6SM BKN050 BKN100
     FM150000 33012KT P6SM SCT200=

USA.gov is the U.S. government's official web portal to all federal, state and local government web resources and services.